首页
METAR-TAF:

METAR-TAF

机场 :

德古斯加巴, 洪都拉斯

通孔廷国际机场

纬度: 14-03N, 经度: 087-13W, 海拔: 994米

当前天气观测

该预报发布于16分钟前的13:00 UTC
风速16节,风向
温度 14°C
湿度 82%
气压 1024 hPa
能見度: 3500
少量云层高于800英尺
多云层高于2000英尺

METAR: MHTG 171300Z 36016KT 7000 3500SW FEW008 BKN020 14/11 Q1024 A3024 RERA NOSIG

时间: 07:16 (13:16 UTC)

预报

该预报发布于2小时和51分钟前的10:25 UTC
预报有效从17日的 06点(UTC)到 18日的 06点(UTC)
风速10节,风向
能見度: 7000
少量云层高于1000英尺
多云层高于2400英尺
附近有阵雨
成为
从 17日的 14点(UTC)到 17日的 16点(UTC)
风速10节,风向,有时为20节阵风
能见度10公里或以上
多云层高于2600英尺
成为
从 17日的 23点(UTC)到 18日的 01点(UTC)
风速12节,风向
少量云层高于1200英尺
多云层高于2200英尺

TAF: MHTG 171025Z 1706/1806 36010KT 7000 VCSH FEW010 BKN024 TX20/1719Z TN12/1812Z BECMG 1714/1716 36010G20KT 9999 NSW BKN026 BECMG 1723/1801 01012KT FEW012 BKN022

超过4000个机场的气象观测和天气预报(METAR&TAF报告)。

可查询的气象台以黄色和红色小点在地图上表示。

将鼠标移到小点上方,可查看气象台名称。

然后点击查看天气观测和预报。

如需切换地图:点击带黑十字的绿色按钮放大地图;点击带横线的绿色按钮缩小地图;或者点击绿色箭头查看邻近地区的地图。


METAR-TAF: